Time;durP1;ratioP1;P1;durP2;ratioP2;P2;SDS_P1;SDS_P2;PMS_P1;PMS_P2;Temp;Humidity;BMP_temperature;BMP_pressure;BME280_temperature;BME280_humidity;BME280_pressure;Samples;Min_cycle;Max_cycle;Signal;HPM_P1;HPM_P2
2023/11/04 00:02:02;;;;;;;35.70;20.20;;;;;;;-147.86;100.00;50053.77;105647;1257;60466;-50
2023/11/04 00:05:31;;;;;;;38.00;21.20;;;;;;;-147.86;100.00;50011.81;102532;1293;603310;-49
2023/11/04 00:07:58;;;;;;;37.70;20.10;;;;;;;-147.86;100.00;50120.46;104868;1272;59341;-50
2023/11/04 00:10:25;;;;;;;37.90;21.60;;;;;;;-147.86;100.00;50096.14;104929;1271;59334;-49
2023/11/04 00:12:52;;;;;;;38.50;20.40;;;;;;;-147.86;100.00;50086.72;104911;1270;70302;-51
2023/11/04 00:15:19;;;;;;;33.90;20.20;;;;;;;-147.86;100.00;50079.27;104883;1269;63719;-48
2023/11/04 00:17:50;;;;;;;32.30;19.20;;;;;;;-147.86;100.00;50081.63;104730;1267;251193;-49
2023/11/04 00:20:17;;;;;;;34.60;19.70;;;;;;;-147.86;100.00;50071.82;105226;1269;61904;-49
2023/11/04 00:22:44;;;;;;;33.20;18.30;;;;;;;-147.86;100.00;50055.34;105211;1269;60087;-48
2023/11/04 00:25:11;;;;;;;38.10;18.80;;;;;;;-147.86;100.00;50056.91;105225;1263;72067;-52
2023/11/04 00:27:38;;;;;;;37.00;17.80;;;;;;;-147.86;100.00;50028.67;105203;1267;65369;-51
2023/11/04 00:30:06;;;;;;;35.10;17.20;;;;;;;-147.86;100.00;50043.18;105086;1264;72639;-51
2023/11/04 00:32:33;;;;;;;32.70;16.90;;;;;;;-147.86;100.00;50027.89;105222;1267;61853;-50
2023/11/04 00:35:00;;;;;;;35.70;17.80;;;;;;;-147.86;100.00;50038.87;105189;1263;60335;-48
2023/11/04 00:37:26;;;;;;;35.80;18.80;;;;;;;-147.86;100.00;50018.47;105217;1264;72678;-51
2023/11/04 00:39:53;;;;;;;37.00;17.90;;;;;;;-147.86;100.00;50004.74;105149;1267;65579;-48
2023/11/04 00:42:20;;;;;;;36.70;18.10;;;;;;;-147.86;100.00;50014.16;105156;1267;72687;-49
2023/11/04 00:44:47;;;;;;;37.10;18.70;;;;;;;-147.86;100.00;50011.80;105232;1270;61881;-47
2023/11/04 00:47:14;;;;;;;36.90;19.50;;;;;;;-147.86;100.00;50014.94;105105;1263;60895;-47
2023/11/04 00:49:41;;;;;;;35.40;18.70;;;;;;;-147.86;100.00;50012.20;105041;1262;73024;-49
2023/11/04 00:52:10;;;;;;;34.50;18.10;;;;;;;-147.86;100.00;49983.95;105206;1267;64694;-51
2023/11/04 00:54:37;;;;;;;35.80;19.60;;;;;;;-147.86;100.00;49970.62;105155;1267;71193;-50
2023/11/04 00:57:04;;;;;;;36.00;18.40;;;;;;;-147.86;100.00;49971.40;105217;1267;61744;-49
2023/11/04 00:59:31;;;;;;;39.50;20.20;;;;;;;-147.86;100.00;49958.07;105221;1263;60235;-53
2023/11/04 01:01:58;;;;;;;38.00;19.20;;;;;;;-147.86;100.00;49973.75;104823;1267;73109;-51
2023/11/04 01:04:25;;;;;;;38.90;18.30;;;;;;;-147.86;100.00;49987.48;104777;1271;64558;-47
2023/11/04 01:06:53;;;;;;;37.60;19.40;;;;;;;-147.86;100.00;49956.89;104928;1266;72656;-49
2023/11/04 01:09:19;;;;;;;40.40;19.80;;;;;;;-147.86;100.00;49973.36;105042;1267;61894;-51
2023/11/04 01:11:47;;;;;;;37.00;19.50;;;;;;;-147.86;100.00;49965.13;105212;1263;60111;-53
2023/11/04 01:14:14;;;;;;;37.90;19.50;;;;;;;-147.86;100.00;49949.83;105289;1267;72069;-48
2023/11/04 01:16:40;;;;;;;41.60;20.00;;;;;;;-147.86;100.00;49936.49;105223;1269;63640;-53
2023/11/04 01:19:07;;;;;;;39.30;19.50;;;;;;;-147.86;100.00;49936.49;105203;1269;72522;-50
2023/11/04 01:21:34;;;;;;;43.40;20.90;;;;;;;-147.86;100.00;49938.84;105564;1257;62068;-51
2023/11/04 01:24:01;;;;;;;36.00;19.30;;;;;;;-147.86;100.00;49939.24;105636;1262;59988;-45
2023/11/04 01:26:28;;;;;;;43.20;22.70;;;;;;;-147.86;100.00;49936.88;105611;1260;72899;-48
2023/11/04 01:28:55;;;;;;;43.90;23.40;;;;;;;-147.86;100.00;49925.51;105557;1260;64596;-51
2023/11/04 01:31:22;;;;;;;41.80;21.80;;;;;;;-147.86;100.00;49930.60;105498;1258;71541;-48
2023/11/04 01:33:49;;;;;;;37.50;20.90;;;;;;;-147.86;100.00;49921.98;105629;1260;62052;-49
2023/11/04 01:36:16;;;;;;;41.20;20.60;;;;;;;-147.86;100.00;49921.59;105633;1257;60183;-48
2023/11/04 01:38:43;;;;;;;45.70;22.20;;;;;;;-147.86;100.00;49925.11;105655;1259;72001;-49
2023/11/04 01:41:10;;;;;;;34.80;20.10;;;;;;;-147.86;100.00;49917.66;105644;1259;65484;-49
2023/11/04 01:43:37;;;;;;;32.00;18.00;;;;;;;-147.86;100.00;49917.27;105646;1260;72475;-50
2023/11/04 01:46:17;;;;;;;40.50;21.40;;;;;;;-147.86;100.00;49909.43;105295;1259;61962;-52
2023/11/04 01:48:44;;;;;;;44.40;21.40;;;;;;;-147.86;100.00;49921.20;105624;1260;60088;-53
2023/11/04 01:51:12;;;;;;;32.60;20.00;;;;;;;-147.86;100.00;49897.27;105663;1257;73017;-53
2023/11/04 01:53:40;;;;;;;38.40;20.10;;;;;;;-147.86;100.00;49913.74;105657;1260;63312;-52
2023/11/04 01:56:08;;;;;;;41.20;21.30;;;;;;;-147.86;100.00;49908.64;105591;1260;71606;-50
2023/11/04 01:58:35;;;;;;;37.80;19.60;;;;;;;-147.86;100.00;49889.81;105632;1260;60529;-45
2023/11/04 02:01:02;;;;;;;30.40;17.40;;;;;;;-147.86;100.00;49893.73;105601;1258;60461;-48
2023/11/04 02:03:30;;;;;;;34.80;19.00;;;;;;;-147.86;100.00;49901.19;105562;1261;73105;-49
2023/11/04 02:05:57;;;;;;;32.10;18.30;;;;;;;-147.86;100.00;49890.60;105575;1258;63275;-49
2023/11/04 02:08:24;;;;;;;43.80;21.60;;;;;;;-147.86;100.00;49891.77;105418;1258;72551;-50
2023/11/04 02:10:51;;;;;;;29.80;17.90;;;;;;;-147.86;100.00;49885.11;105621;1259;61781;-50
2023/11/04 02:13:19;;;;;;;32.50;18.60;;;;;;;-147.86;100.00;49885.11;105584;1258;60159;-47
2023/11/04 02:15:46;;;;;;;29.60;17.70;;;;;;;-147.86;100.00;49882.36;105659;1257;73141;-46
2023/11/04 02:18:13;;;;;;;32.80;18.90;;;;;;;-147.86;100.00;49888.63;105567;1260;64505;-50
2023/11/04 02:20:41;;;;;;;29.10;16.40;;;;;;;-147.86;100.00;49884.32;105616;1260;72621;-51
2023/11/04 02:23:09;;;;;;;29.70;17.30;;;;;;;-147.86;100.00;49883.93;105626;1258;61982;-48
2023/11/04 02:25:37;;;;;;;29.20;16.80;;;;;;;-147.86;100.00;49880.79;105632;1258;60276;-48
2023/11/04 02:28:04;;;;;;;31.40;17.10;;;;;;;-147.86;100.00;49887.46;105666;1256;73003;-50
2023/11/04 02:30:32;;;;;;;24.60;16.10;;;;;;;-147.86;100.00;49885.89;105654;1259;65170;-52
2023/11/04 02:32:59;;;;;;;29.00;18.70;;;;;;;-147.86;100.00;49882.36;105588;1257;70913;-49
2023/11/04 02:35:26;;;;;;;29.70;17.20;;;;;;;-147.86;100.00;49886.28;105672;1259;61771;-52
2023/11/04 02:37:53;;;;;;;27.50;16.70;;;;;;;-147.86;100.00;49876.48;105631;1261;60191;-50
2023/11/04 02:40:21;;;;;;;32.70;16.40;;;;;;;-147.86;100.00;49872.55;105652;1260;71881;-51
2023/11/04 02:42:49;;;;;;;31.90;17.30;;;;;;;-147.86;100.00;49863.54;105606;1259;65476;-50
2023/11/04 02:45:16;;;;;;;28.70;17.50;;;;;;;-147.86;100.00;49871.77;105600;1257;71743;-47
2023/11/04 02:47:43;;;;;;;33.90;17.50;;;;;;;-147.86;100.00;49863.54;105657;1260;61715;-49
2023/11/04 02:50:12;;;;;;;32.20;16.20;;;;;;;-147.86;100.00;49861.18;105688;1257;60363;-49
2023/11/04 02:52:40;;;;;;;30.60;17.30;;;;;;;-147.86;100.00;49878.83;105622;1256;73097;-50
2023/11/04 02:55:07;;;;;;;30.80;18.10;;;;;;;-147.86;100.00;49878.05;105658;1260;64629;-50
2023/11/04 02:57:34;;;;;;;28.70;17.60;;;;;;;-147.86;100.00;49857.26;105587;1257;72611;-49
2023/11/04 03:00:01;;;;;;;31.70;18.10;;;;;;;-147.86;100.00;49871.38;105735;1260;61868;-51
2023/11/04 03:02:28;;;;;;;29.20;17.50;;;;;;;-147.86;100.00;49868.24;105964;1251;59709;-49
2023/11/04 03:04:55;;;;;;;29.70;17.70;;;;;;;-147.86;100.00;49868.24;105992;1253;72889;-49
2023/11/04 03:07:22;;;;;;;35.00;20.20;;;;;;;-147.86;100.00;49855.30;105748;1257;64752;-49
2023/11/04 03:09:49;;;;;;;35.60;19.60;;;;;;;-147.86;100.00;49871.77;105890;1253;72628;-52
2023/11/04 03:12:16;;;;;;;32.40;18.80;;;;;;;-147.86;100.00;49873.34;105876;1255;62067;-48
2023/11/04 03:14:44;;;;;;;34.80;20.60;;;;;;;-147.86;100.00;49858.82;105899;1254;60418;-49
2023/11/04 03:17:11;;;;;;;36.30;21.20;;;;;;;-147.86;100.00;49865.88;105688;1254;71821;-49
2023/11/04 03:19:38;;;;;;;41.10;20.90;;;;;;;-147.86;100.00;49858.04;105719;1253;64471;-48
2023/11/04 03:22:05;;;;;;;37.60;19.30;;;;;;;-147.86;100.00;49852.95;105910;1254;72642;-50
2023/11/04 03:24:32;;;;;;;34.30;20.50;;;;;;;-147.86;100.00;49841.96;105934;1255;61882;-47
2023/11/04 03:26:59;;;;;;;41.40;22.00;;;;;;;-147.86;100.00;49865.10;105871;1253;60280;-49
2023/11/04 03:29:26;;;;;;;34.10;21.40;;;;;;;-147.86;100.00;49864.71;105879;1255;73035;-48
2023/11/04 03:31:53;;;;;;;38.90;22.20;;;;;;;-147.86;100.00;49867.45;105888;1256;65400;-49
2023/11/04 03:34:19;;;;;;;45.90;22.70;;;;;;;-147.86;100.00;49854.12;105889;1253;73169;-49
2023/11/04 03:36:47;;;;;;;39.20;22.10;;;;;;;-147.86;100.00;49847.84;105897;1257;61969;-48
2023/11/04 03:39:14;;;;;;;40.10;21.30;;;;;;;-147.86;100.00;49853.73;105894;1254;60271;-50
2023/11/04 03:41:41;;;;;;;32.80;19.90;;;;;;;-147.86;100.00;49850.98;105879;1257;72990;-51
2023/11/04 03:44:08;;;;;;;38.40;20.40;;;;;;;-147.86;100.00;49847.45;105925;1257;64468;-47
2023/11/04 03:46:34;;;;;;;31.80;20.10;;;;;;;-147.86;100.00;49856.48;105947;1254;71592;-51
2023/11/04 03:49:01;;;;;;;32.30;19.20;;;;;;;-147.86;100.00;49858.04;105925;1255;61994;-49
2023/11/04 03:51:30;;;;;;;35.60;19.40;;;;;;;-147.86;100.00;49862.75;105680;1253;60518;-49
2023/11/04 03:53:57;;;;;;;30.40;18.30;;;;;;;-147.86;100.00;49849.02;105955;1253;73007;-49
2023/11/04 03:56:24;;;;;;;30.00;17.80;;;;;;;-147.86;100.00;49826.27;105960;1256;64563;-50
2023/11/04 03:58:51;;;;;;;35.90;19.20;;;;;;;-147.86;100.00;49845.88;105913;1254;72609;-48
2023/11/04 04:01:18;;;;;;;29.50;17.80;;;;;;;-147.86;100.00;49850.98;105889;1256;61825;-50
2023/11/04 04:03:45;;;;;;;27.60;17.20;;;;;;;-147.86;100.00;49853.34;105937;1253;60474;-49
2023/11/04 04:06:15;;;;;;;30.60;18.90;;;;;;;-147.86;100.00;49841.57;105909;1256;72942;-49
2023/11/04 04:08:44;;;;;;;31.80;18.60;;;;;;;-147.86;100.00;49834.12;105925;1255;65296;-51
2023/11/04 04:11:11;;;;;;;34.40;20.00;;;;;;;-147.86;100.00;49840.00;105973;1257;72640;-47
2023/11/04 04:13:38;;;;;;;36.10;20.20;;;;;;;-147.86;100.00;49813.72;105940;1252;62036;-48
2023/11/04 04:16:10;;;;;;;36.20;20.30;;;;;;;-147.86;100.00;49809.80;105946;1253;60423;-48
2023/11/04 04:18:37;;;;;;;34.10;20.30;;;;;;;-147.86;100.00;49838.82;105965;1254;72595;-49
2023/11/04 04:21:05;;;;;;;38.90;21.00;;;;;;;-147.86;100.00;49822.74;105958;1256;65480;-48
2023/11/04 04:23:32;;;;;;;42.40;22.10;;;;;;;-147.86;100.00;49832.16;105962;1254;72499;-48
2023/11/04 04:26:00;;;;;;;39.10;21.40;;;;;;;-147.86;100.00;49827.45;105903;1256;62061;-53
2023/11/04 04:28:26;;;;;;;39.60;21.40;;;;;;;-147.86;100.00;49809.80;105907;1252;60559;-50
2023/11/04 04:30:53;;;;;;;43.30;21.30;;;;;;;-147.86;100.00;49837.25;105924;1255;75406;-49
2023/11/04 04:33:20;;;;;;;39.70;21.40;;;;;;;-147.86;100.00;49829.41;105997;1256;64645;-47
2023/11/04 04:35:48;;;;;;;43.20;22.10;;;;;;;-147.86;100.00;49800.77;105930;1254;72650;-48
2023/11/04 04:38:15;;;;;;;38.30;20.90;;;;;;;-147.86;100.00;49834.12;105947;1256;61956;-51
2023/11/04 04:40:42;;;;;;;39.50;20.90;;;;;;;-147.86;100.00;49820.39;105907;1253;60427;-47
2023/11/04 04:43:09;;;;;;;39.20;21.00;;;;;;;-147.86;100.00;49821.96;105932;1253;73829;-50
2023/11/04 04:45:36;;;;;;;37.00;21.60;;;;;;;-147.86;100.00;49828.62;105873;1256;64551;-48
2023/11/04 04:48:04;;;;;;;37.70;20.20;;;;;;;-147.86;100.00;49818.82;105965;1256;71685;-49
2023/11/04 04:50:31;;;;;;;43.50;21.90;;;;;;;-147.86;100.00;49814.50;105918;1252;61851;-50
2023/11/04 04:52:58;;;;;;;32.90;20.60;;;;;;;-147.86;100.00;49811.76;105940;1253;60454;-48
2023/11/04 04:55:25;;;;;;;40.10;22.00;;;;;;;-147.86;100.00;49811.76;105900;1252;73686;-50
2023/11/04 04:57:53;;;;;;;36.40;20.70;;;;;;;-147.86;100.00;49811.37;105724;1257;64608;-52
2023/11/04 05:00:22;;;;;;;37.90;20.70;;;;;;;-147.86;100.00;49807.05;105892;1251;72593;-49
2023/11/04 05:02:51;;;;;;;37.60;20.60;;;;;;;-147.86;100.00;49813.33;105795;1255;61759;-48
2023/11/04 05:05:18;;;;;;;35.40;20.10;;;;;;;-147.86;100.00;49807.05;105916;1256;60460;-51
2023/11/04 05:07:46;;;;;;;35.80;18.50;;;;;;;-147.86;100.00;49818.43;105904;1251;73826;-50
2023/11/04 05:10:13;;;;;;;37.10;20.20;;;;;;;-147.86;100.00;49795.68;105871;1251;65161;-49
2023/11/04 05:12:41;;;;;;;34.40;19.50;;;;;;;-147.86;100.00;49786.27;105893;1251;72559;-48
2023/11/04 05:15:08;;;;;;;34.30;19.90;;;;;;;-147.86;100.00;49789.79;105921;1256;61921;-46
2023/11/04 05:17:35;;;;;;;31.10;18.30;;;;;;;-147.86;100.00;49797.64;105896;1253;60438;-48
2023/11/04 05:20:04;;;;;;;35.80;20.50;;;;;;;-147.86;100.00;49801.17;105930;1253;74516;-49
2023/11/04 05:22:31;;;;;;;34.30;19.70;;;;;;;-147.86;100.00;49783.52;105847;1255;64684;-51
2023/11/04 05:24:59;;;;;;;33.30;18.80;;;;;;;-147.86;100.00;49806.27;105897;1253;71628;-50
2023/11/04 05:27:26;;;;;;;31.60;17.80;;;;;;;-147.86;100.00;49780.38;105958;1254;61665;-50
2023/11/04 05:29:53;;;;;;;29.70;17.00;;;;;;;-147.86;100.00;49799.21;105925;1253;60531;-50
2023/11/04 05:32:20;;;;;;;31.70;18.00;;;;;;;-147.86;100.00;49776.85;105850;1256;73668;-49
2023/11/04 05:34:46;;;;;;;31.10;18.20;;;;;;;-147.86;100.00;49789.01;105858;1256;64643;-50
2023/11/04 05:37:14;;;;;;;31.30;16.80;;;;;;;-147.86;100.00;49770.57;105867;1253;72609;-54
2023/11/04 05:39:41;;;;;;;26.90;16.70;;;;;;;-147.86;100.00;49782.73;105962;1252;61755;-50
2023/11/04 05:42:08;;;;;;;31.90;17.80;;;;;;;-147.86;100.00;49776.85;105960;1253;60396;-51
2023/11/04 05:44:35;;;;;;;28.30;16.70;;;;;;;-147.86;100.00;49768.61;105909;1256;73777;-52
2023/11/04 05:47:02;;;;;;;26.80;16.90;;;;;;;-147.86;100.00;49770.57;105922;1253;64672;-50
2023/11/04 05:49:29;;;;;;;25.80;16.80;;;;;;;-147.86;100.00;49784.70;105932;1254;72664;-50
2023/11/04 05:51:56;;;;;;;22.30;15.50;;;;;;;-147.86;100.00;49772.14;105916;1252;61661;-48
2023/11/04 05:54:22;;;;;;;21.30;14.30;;;;;;;-147.86;100.00;49764.30;105909;1251;60424;-49
2023/11/04 05:56:49;;;;;;;23.00;13.80;;;;;;;-147.86;100.00;49765.47;105855;1256;73718;-47
2023/11/04 05:59:16;;;;;;;20.00;13.40;;;;;;;-147.86;100.00;49777.24;105897;1256;64601;-48
2023/11/04 06:01:43;;;;;;;21.30;11.60;;;;;;;-147.86;100.00;49784.70;105919;1256;72781;-48
2023/11/04 06:04:10;;;;;;;24.80;12.50;;;;;;;-147.86;100.00;49772.93;105948;1256;60916;-50
2023/11/04 06:06:37;;;;;;;18.50;11.40;;;;;;;-147.86;100.00;49754.89;105927;1252;60407;-47
2023/11/04 06:09:04;;;;;;;14.80;10.70;;;;;;;-147.86;100.00;49756.07;105928;1256;73765;-52
2023/11/04 06:11:31;;;;;;;17.60;10.30;;;;;;;-147.86;100.00;49765.08;105889;1253;63687;-47
2023/11/04 06:13:58;;;;;;;12.40;9.40;;;;;;;-147.86;100.00;49763.12;105967;1254;72628;-48
2023/11/04 06:16:32;;;;;;;11.70;8.40;;;;;;;-147.86;100.00;49753.32;105885;1256;61777;-50
2023/11/04 06:19:00;;;;;;;11.40;8.00;;;;;;;-147.86;100.00;49759.98;105913;1252;60437;-49
2023/11/04 06:21:28;;;;;;;11.30;7.50;;;;;;;-147.86;100.00;49753.71;105938;1251;72448;-48
2023/11/04 06:23:54;;;;;;;13.10;7.40;;;;;;;-147.86;100.00;49757.24;105918;1253;64722;-50
2023/11/04 06:26:24;;;;;;;9.90;6.70;;;;;;;-147.86;100.00;49752.93;105991;1253;72662;-49
2023/11/04 06:28:51;;;;;;;9.50;7.20;;;;;;;-147.86;100.00;49758.41;105904;1256;61947;-50
2023/11/04 06:31:24;;;;;;;9.20;6.90;;;;;;;-147.86;100.00;49753.32;105935;1251;60431;-51
2023/11/04 06:33:51;;;;;;;11.20;6.90;;;;;;;-147.86;100.00;49751.74;105898;1255;73962;-47
2023/11/04 06:36:18;;;;;;;14.50;7.90;;;;;;;-147.86;100.00;49761.95;105915;1255;65388;-49
2023/11/04 06:38:45;;;;;;;13.20;8.00;;;;;;;-147.86;100.00;49755.67;105907;1254;71635;-48
2023/11/04 06:41:16;;;;;;;9.10;7.00;;;;;;;-147.86;100.00;49778.42;105922;1251;62040;-51
2023/11/04 06:43:44;;;;;;;12.30;7.30;;;;;;;-147.86;100.00;49778.02;105908;1255;60303;-47
2023/11/04 06:46:12;;;;;;;9.40;7.00;;;;;;;-147.86;100.00;49777.64;105941;1251;72636;-47
2023/11/04 06:48:38;;;;;;;8.10;6.80;;;;;;;-147.86;100.00;49784.30;105979;1254;64668;-48
2023/11/04 06:51:07;;;;;;;12.60;7.20;;;;;;;-147.86;100.00;49789.79;105950;1251;72603;-47
2023/11/04 06:53:34;;;;;;;9.70;7.00;;;;;;;-147.86;100.00;49790.19;105907;1256;60968;-48
2023/11/04 06:56:02;;;;;;;10.20;6.80;;;;;;;-147.86;100.00;49797.64;105904;1253;60413;-49
2023/11/04 06:58:29;;;;;;;12.60;7.70;;;;;;;-147.86;100.00;49785.48;105893;1255;73747;-46
2023/11/04 07:00:57;;;;;;;10.50;7.70;;;;;;;-147.86;100.00;49808.62;105931;1256;65274;-50
2023/11/04 07:03:24;;;;;;;10.40;6.60;;;;;;;-147.86;100.00;49795.68;105945;1253;72593;-48
2023/11/04 07:05:52;;;;;;;10.30;6.90;;;;;;;-147.86;100.00;49810.58;105949;1251;61889;-51
2023/11/04 07:08:19;;;;;;;7.80;7.00;;;;;;;-147.86;100.00;49817.25;105909;1251;60297;-50
2023/11/04 07:10:45;;;;;;;11.40;7.80;;;;;;;-147.86;100.00;49815.68;105915;1255;73816;-48
2023/11/04 07:13:13;;;;;;;9.60;7.00;;;;;;;-147.86;100.00;49838.04;105902;1256;64575;-47
2023/11/04 07:15:43;;;;;;;13.60;7.40;;;;;;;-147.86;100.00;49827.84;105713;1257;72643;-51
2023/11/04 07:18:11;;;;;;;10.80;7.00;;;;;;;-147.86;100.00;49838.82;105949;1255;60633;-48
2023/11/04 07:20:39;;;;;;;8.10;6.40;;;;;;;-147.86;100.00;49853.73;105902;1251;60533;-48
2023/11/04 07:23:12;;;;;;;9.90;6.80;;;;;;;-147.86;100.00;49853.34;105891;1256;73769;-48
2023/11/04 07:25:39;;;;;;;12.60;7.20;;;;;;;-147.86;100.00;49867.46;105888;1256;63766;-48
2023/11/04 07:28:06;;;;;;;9.80;6.70;;;;;;;-147.86;100.00;49880.79;105907;1256;73479;-47
2023/11/04 07:30:36;;;;;;;8.50;6.10;;;;;;;-147.86;100.00;49878.05;105910;1251;61897;-55
2023/11/04 07:33:03;;;;;;;8.40;6.20;;;;;;;-147.86;100.00;49880.79;105941;1251;60882;-51
2023/11/04 07:35:30;;;;;;;8.60;6.60;;;;;;;-147.86;100.00;49900.80;105934;1255;73883;-49
2023/11/04 07:37:57;;;;;;;8.20;5.70;;;;;;;-147.86;100.00;49904.72;105748;1256;64795;-51
2023/11/04 07:40:24;;;;;;;10.30;6.10;;;;;;;-147.86;100.00;49905.11;105700;1254;72745;-47
2023/11/04 07:42:52;;;;;;;7.60;6.10;;;;;;;-147.86;100.00;49925.12;105793;1256;61747;-47
2023/11/04 07:45:19;;;;;;;14.00;6.50;;;;;;;-147.86;100.00;49929.43;105812;1252;60531;-51
2023/11/04 07:47:46;;;;;;;8.60;5.90;;;;;;;-147.86;100.00;49946.69;105920;1252;73744;-48
2023/11/04 07:50:13;;;;;;;8.60;6.10;;;;;;;-147.86;100.00;49955.32;105930;1252;64677;-53
2023/11/04 07:52:41;;;;;;;45.80;8.10;;;;;;;-147.86;100.00;49966.30;105958;1253;72508;-54
2023/11/04 07:55:22;;;;;;;10.70;6.20;;;;;;;-147.86;100.00;49993.76;105916;1253;61833;-53
2023/11/04 07:57:49;;;;;;;18.90;6.70;;;;;;;-147.86;100.00;49985.91;105922;1253;60499;-52
2023/11/04 08:00:17;;;;;;;9.90;5.70;;;;;;;-147.86;100.00;50007.88;105911;1253;73839;-50
2023/11/04 08:02:44;;;;;;;14.10;6.60;;;;;;;-147.86;100.00;50020.43;105932;1255;63498;-49
2023/11/04 08:05:11;;;;;;;9.20;6.30;;;;;;;-147.86;100.00;50045.93;105955;1254;72676;-49
2023/11/04 08:07:39;;;;;;;6.30;5.50;;;;;;;-147.86;100.00;50036.91;105925;1253;61908;-51
2023/11/04 08:10:07;;;;;;;8.50;6.50;;;;;;;-147.86;100.00;50068.29;105954;1251;60418;-49
2023/11/04 08:12:34;;;;;;;12.00;6.80;;;;;;;-147.86;100.00;50088.29;106030;1252;73875;-52
2023/11/04 08:15:01;;;;;;;11.40;5.90;;;;;;;-147.86;100.00;50113.79;105936;1253;64651;-51
2023/11/04 08:17:28;;;;;;;7.40;6.10;;;;;;;-147.86;100.00;50139.29;105902;1256;72542;-49
2023/11/04 08:19:54;;;;;;;6.80;5.60;;;;;;;-147.86;100.00;50174.59;105910;1255;61754;-48
2023/11/04 08:22:21;;;;;;;7.70;5.60;;;;;;;-147.86;100.00;50196.16;105962;1251;60509;-48
2023/11/04 08:24:48;;;;;;;7.10;5.40;;;;;;;-147.86;100.00;50256.18;105883;1253;72400;-50
2023/11/04 08:27:15;;;;;;;7.60;5.80;;;;;;;-147.86;100.00;50291.49;105928;1251;64499;-52
2023/11/04 08:29:42;;;;;;;6.50;5.90;;;;;;;-147.86;100.00;50341.31;105975;1252;72636;-48
2023/11/04 08:32:09;;;;;;;8.50;5.50;;;;;;;-147.86;100.00;50389.56;105927;1251;61982;-52
2023/11/04 08:34:36;;;;;;;5.90;5.40;;;;;;;-147.86;100.00;50445.27;105906;1253;60430;-51
2023/11/04 08:37:03;;;;;;;8.50;5.90;;;;;;;-147.86;100.00;50486.85;105962;1252;73846;-52
2023/11/04 08:39:31;;;;;;;9.50;5.80;;;;;;;-147.86;100.00;50516.27;105924;1255;64697;-53
2023/11/04 08:41:58;;;;;;;20.80;7.10;;;;;;;-147.86;100.00;50553.54;105882;1252;72375;-49
2023/11/04 08:44:26;;;;;;;10.50;5.60;;;;;;;-147.86;100.00;50581.79;105935;1255;61803;-48
2023/11/04 08:46:53;;;;;;;8.30;6.00;;;;;;;-147.86;100.00;50601.40;106028;1252;60427;-48
2023/11/04 08:49:19;;;;;;;17.80;6.40;;;;;;;-147.86;100.00;50610.43;105910;1252;73794;-48
2023/11/04 08:51:47;;;;;;;7.10;5.60;;;;;;;-147.86;100.00;50616.30;105983;1255;65131;-47
2023/11/04 08:54:14;;;;;;;8.20;6.30;;;;;;;-147.86;100.00;50610.82;105990;1255;72727;-51
2023/11/04 08:56:42;;;;;;;20.20;6.30;;;;;;;-147.86;100.00;50581.00;105938;1256;62085;-53
2023/11/04 08:59:09;;;;;;;7.70;6.20;;;;;;;-147.86;100.00;50569.23;105921;1256;60339;-48
2023/11/04 09:01:36;;;;;;;18.70;7.20;;;;;;;-147.86;100.00;50536.28;105914;1254;73705;-50
2023/11/04 09:04:03;;;;;;;11.30;6.60;;;;;;;-147.86;100.00;50506.07;105938;1253;64682;-50
2023/11/04 09:06:35;;;;;;;10.50;6.30;;;;;;;-147.86;100.00;50490.77;105917;1253;72527;-47
2023/11/04 09:09:06;;;;;;;17.40;7.40;;;;;;;-147.86;100.00;50468.80;105919;1256;61933;-48
2023/11/04 09:11:33;;;;;;;16.40;7.50;;;;;;;-147.86;100.00;50448.01;105987;1251;60444;-48
2023/11/04 09:14:04;;;;;;;11.20;7.60;;;;;;;-147.86;100.00;50411.13;105891;1251;73900;-49
2023/11/04 09:16:34;;;;;;;18.80;8.90;;;;;;;-147.86;100.00;50377.79;105925;1253;65543;-49
2023/11/04 09:19:01;;;;;;;13.00;6.90;;;;;;;-147.86;100.00;50336.60;105981;1251;72655;-50
2023/11/04 09:21:28;;;;;;;15.00;6.70;;;;;;;-147.86;100.00;50293.84;105927;1256;61935;-49
2023/11/04 09:23:55;;;;;;;23.60;7.90;;;;;;;-147.86;100.00;50249.12;105935;1251;60535;-46
2023/11/04 09:26:22;;;;;;;15.50;7.50;;;;;;;-147.86;100.00;50213.04;105883;1252;73806;-52
2023/11/04 09:28:49;;;;;;;16.10;8.30;;;;;;;-147.86;100.00;50177.34;105752;1255;64674;-47
2023/11/04 09:31:17;;;;;;;18.40;7.60;;;;;;;-147.86;100.00;50160.07;105770;1254;73086;-53
2023/11/04 09:33:44;;;;;;;15.10;7.40;;;;;;;-147.86;100.00;50123.59;105942;1252;61842;-49
2023/11/04 09:36:11;;;;;;;21.00;7.80;;;;;;;-147.86;100.00;50100.46;105934;1251;60409;-51
2023/11/04 09:38:38;;;;;;;15.40;8.20;;;;;;;-147.86;100.00;50098.88;105949;1256;73687;-46
2023/11/04 09:41:05;;;;;;;16.60;8.30;;;;;;;-147.86;100.00;50109.87;105931;1253;65460;-50
2023/11/04 09:43:32;;;;;;;22.00;7.60;;;;;;;-147.86;100.00;50116.93;106041;1257;72684;-49
2023/11/04 09:46:01;;;;;;;17.70;7.80;;;;;;;-147.86;100.00;50113.40;105904;1256;61830;-49
2023/11/04 09:48:29;;;;;;;12.70;7.10;;;;;;;-147.86;100.00;50115.36;105746;1253;60527;-51
2023/11/04 09:51:00;;;;;;;20.00;7.30;;;;;;;-147.86;100.00;50096.14;105970;1254;73809;-49
2023/11/04 09:53:27;;;;;;;15.30;7.70;;;;;;;-147.86;100.00;50086.33;105926;1256;63266;-48
2023/11/04 09:55:54;;;;;;;15.50;6.40;;;;;;;-147.86;100.00;50067.50;105898;1253;72610;-50
2023/11/04 09:58:21;;;;;;;17.10;7.30;;;;;;;-147.86;100.00;50042.01;105761;1253;61836;-50
2023/11/04 10:00:51;;;;;;;12.40;6.70;;;;;;;-147.86;100.00;50017.30;105705;1251;60479;-47
2023/11/04 10:03:18;;;;;;;17.60;6.60;;;;;;;-147.86;100.00;50009.06;106012;1252;73073;-47
2023/11/04 10:05:45;;;;;;;16.80;6.70;;;;;;;-147.86;100.00;50001.60;105933;1256;64670;-47
2023/11/04 10:08:13;;;;;;;17.60;7.10;;;;;;;-147.86;100.00;49988.27;105964;1253;72594;-45
2023/11/04 10:10:40;;;;;;;14.40;7.60;;;;;;;-147.86;100.00;49976.50;105912;1251;62370;-50
2023/11/04 10:13:08;;;;;;;14.20;7.10;;;;;;;-147.86;100.00;49951.79;106011;1253;60855;-49
2023/11/04 10:15:35;;;;;;;21.90;8.70;;;;;;;-147.86;100.00;49900.79;105874;1252;72455;-50
2023/11/04 10:18:03;;;;;;;26.40;8.60;;;;;;;-147.86;100.00;49871.77;105926;1253;65477;-49
2023/11/04 10:20:30;;;;;;;17.10;8.00;;;;;;;-147.86;100.00;49838.43;105935;1254;73490;-48
2023/11/04 10:22:58;;;;;;;16.10;8.20;;;;;;;-147.86;100.00;49828.23;105843;1252;62017;-47
2023/11/04 10:25:26;;;;;;;13.40;7.40;;;;;;;-147.86;100.00;49815.68;105898;1254;60477;-45
2023/11/04 10:27:53;;;;;;;17.20;8.20;;;;;;;-147.86;100.00;49813.72;105839;1257;74632;-49
2023/11/04 10:30:21;;;;;;;17.30;8.40;;;;;;;-147.86;100.00;49821.56;105912;1256;65620;-48
2023/11/04 10:32:48;;;;;;;17.90;8.20;;;;;;;-147.86;100.00;49817.25;105707;1253;72595;-49
2023/11/04 10:35:19;;;;;;;21.70;8.40;;;;;;;-147.86;100.00;49803.52;105895;1253;61766;-47
2023/11/04 10:37:50;;;;;;;24.80;8.90;;;;;;;-147.86;100.00;49812.15;105908;1252;60530;-45
2023/11/04 10:40:17;;;;;;;28.30;9.10;;;;;;;-147.86;100.00;49820.39;105959;1255;73847;-47
2023/11/04 10:42:52;;;;;;;20.60;9.10;;;;;;;-147.86;100.00;49830.98;105963;1255;65125;-46
2023/11/04 10:45:23;;;;;;;21.70;8.90;;;;;;;-147.86;100.00;49824.31;105921;1256;72412;-49
2023/11/04 10:48:03;;;;;;;17.20;8.70;;;;;;;-147.86;100.00;49838.43;105857;1253;62057;-45
2023/11/04 10:50:38;;;;;;;21.10;9.00;;;;;;;-147.86;100.00;49845.49;105916;1256;60457;-49
2023/11/04 10:53:27;;;;;;;13.40;8.30;;;;;;;-147.86;100.00;49854.12;105879;1253;72362;-46
2023/11/04 10:56:01;;;;;;;22.60;8.30;;;;;;;-147.86;100.00;49887.85;105897;1256;64955;-50